This is the latest recevied weather packets stored in our database for station/object W5HKR. If no packets are shown the sender has not sent any weather packets the latest 1 day(s).
| Time | Temp. | Humidity | Pressure | Rain* | Wind** | Luminosity | Snow |
|---|---|---|---|---|---|---|---|
| 1777998205 | 23.89° C | 85% | 980.9 hPa | 0 mm | 6.26 m/s, 262° | - | - |
| 1777998117 | 18.33° C | 91% | 990.6 hPa | 0 mm | 6.26 m/s, 263° | - | - |
| 1777997906 | 18.33° C | 91% | 990.6 hPa | 0 mm | 6.26 m/s, 272° | - | - |
| 1777997607 | 23.89° C | 86% | 980.8 hPa | 0 mm | 5.36 m/s, 277° | - | - |
| 1777997307 | 18.33° C | 91% | 990.6 hPa | 0 mm | 5.36 m/s, 270° | - | - |
| 1777997038 | 23.33° C | 87% | 980.8 hPa | 0 mm | 5.36 m/s, 261° | - | - |
| 1777997007 | 23.33° C | 86% | 981 hPa | 0 mm | 6.26 m/s, 257° | - | - |
| 1777996705 | 18.33° C | 91% | 990.6 hPa | 0 mm | 5.36 m/s, 269° | - | - |
| 1777996406 | 18.33° C | 91% | 990.6 hPa | 0 mm | 5.81 m/s, 267° | - | - |
| 1777996105 | 18.33° C | 91% | 990.6 hPa | 0 mm | 5.36 m/s, 269° | - | - |
| 1777995957 | 23.33° C | 87% | 980.7 hPa | 0 mm | 5.36 m/s, 269° | - | - |
| 1777995809 | 18.33° C | 91% | 990.6 hPa | 0 mm | 5.36 m/s, 272° | - | - |
| 1777995507 | 18.33° C | 91% | 990.6 hPa | 0 mm | 5.36 m/s, 267° | - | - |
| 1777995206 | 18.33° C | 91% | 990.6 hPa | 0 mm | 5.36 m/s, 269° | - | - |
| 1777994878 | 18.33° C | 91% | 990.6 hPa | 0 mm | 6.26 m/s, 269° | - | - |
| 1777994606 | 18.33° C | 91% | 990.6 hPa | 0 mm | 5.36 m/s, 269° | - | - |
| 1777994306 | 18.33° C | 91% | 990.6 hPa | 0 mm | 4.47 m/s, 268° | - | - |
| 1777994008 | 18.33° C | 91% | 990.6 hPa | 0 mm | 4.47 m/s, 267° | - | - |
| 1777993796 | 22.78° C | 88% | 981 hPa | 0 mm | 5.36 m/s, 263° | - | - |
| 1777993707 | 18.33° C | 91% | 990.6 hPa | 0 mm | 5.36 m/s, 269° | - | - |
| 1777993407 | 22.78° C | 89% | 981 hPa | 0 mm | 5.36 m/s, 268° | - | - |
| 1777993107 | 18.33° C | 91% | 990.6 hPa | 0 mm | 4.47 m/s, 270° | - | - |
| 1777992805 | 18.33° C | 91% | 990.6 hPa | 0 mm | 5.36 m/s, 267° | - | - |
| 1777992718 | 22.22° C | 89% | 981.3 hPa | 0 mm | 5.36 m/s, 267° | - | - |
| 1777992506 | 22.22° C | 89% | 980.5 hPa | 0 mm | 5.36 m/s, 270° | - | - |
* Rain latest hour (hover to see other rain measurements)
** Current wind speed in m/s (hover to see current wind gust speed)